Time;durP1;ratioP1;P1;durP2;ratioP2;P2;SDS_P1;SDS_P2;PMS_P1;PMS_P2;Temp;Humidity;BMP_temperature;BMP_pressure;BME280_temperature;BME280_humidity;BME280_pressure;Samples;Min_cycle;Max_cycle;Signal;HPM_P1;HPM_P2
2021/03/13 00:02:24;;;;;;;5.45;3.80;;;4.60;99.90;;;;;;5059706;28;20035;-45
2021/03/13 00:04:50;;;;;;;6.93;3.85;;;4.60;99.90;;;;;;5049271;28;20063;-44
2021/03/13 00:07:15;;;;;;;6.53;3.85;;;4.60;99.90;;;;;;5048861;28;20037;-45
2021/03/13 00:09:41;;;;;;;5.80;4.03;;;4.60;99.90;;;;;;5049404;28;20529;-46
2021/03/13 00:12:09;;;;;;;6.57;4.28;;;4.70;99.90;;;;;;5049709;28;20036;-44
2021/03/13 00:14:34;;;;;;;9.52;5.55;;;4.70;99.90;;;;;;5049241;28;20017;-47
2021/03/13 00:17:00;;;;;;;6.13;4.72;;;4.70;99.90;;;;;;5048763;28;20261;-45
2021/03/13 00:19:25;;;;;;;7.72;5.00;;;4.70;99.90;;;;;;5048823;28;20086;-45
2021/03/13 00:21:50;;;;;;;7.93;4.80;;;4.70;99.90;;;;;;5049158;28;20044;-44
2021/03/13 00:24:16;;;;;;;8.85;4.97;;;4.80;99.90;;;;;;5049632;28;20140;-44
2021/03/13 00:26:42;;;;;;;9.27;5.57;;;4.80;99.90;;;;;;5047982;28;20222;-44
2021/03/13 00:29:08;;;;;;;7.97;5.25;;;4.80;99.90;;;;;;5049408;28;20191;-47
2021/03/13 00:31:34;;;;;;;9.43;5.72;;;4.80;99.90;;;;;;5049354;28;20115;-44
2021/03/13 00:34:00;;;;;;;9.52;5.55;;;4.80;99.90;;;;;;5049092;28;20104;-45
2021/03/13 00:36:25;;;;;;;9.30;5.68;;;4.90;99.90;;;;;;5048516;28;20104;-44
2021/03/13 00:38:50;;;;;;;11.45;5.93;;;4.80;99.90;;;;;;5047314;28;20025;-45
2021/03/13 00:41:16;;;;;;;13.98;6.55;;;4.80;99.90;;;;;;5050059;28;20110;-44
2021/03/13 00:43:41;;;;;;;15.45;6.22;;;4.80;99.90;;;;;;5052430;28;20041;-45
2021/03/13 00:46:07;;;;;;;11.57;6.03;;;4.80;99.90;;;;;;5048583;28;20447;-46
2021/03/13 00:48:32;;;;;;;14.60;6.78;;;4.80;99.90;;;;;;5047550;28;20147;-46
2021/03/13 00:50:58;;;;;;;10.40;6.55;;;4.80;99.90;;;;;;5048741;28;20025;-44
2021/03/13 00:53:23;;;;;;;11.73;6.43;;;4.80;99.90;;;;;;5049034;28;20036;-45
2021/03/13 00:55:49;;;;;;;12.85;7.65;;;4.80;99.90;;;;;;5047840;28;20025;-45
2021/03/13 00:58:14;;;;;;;13.27;7.45;;;4.80;99.90;;;;;;5048054;28;20384;-44
2021/03/13 01:00:40;;;;;;;16.05;6.63;;;4.80;99.90;;;;;;5047834;28;20040;-46
2021/03/13 01:03:06;;;;;;;9.45;6.50;;;4.80;99.90;;;;;;5047636;28;20059;-45
2021/03/13 01:05:32;;;;;;;8.13;5.90;;;4.80;99.90;;;;;;5047996;28;20437;-45
2021/03/13 01:07:58;;;;;;;14.80;6.35;;;4.90;99.90;;;;;;5048426;28;20032;-44
2021/03/13 01:10:31;;;;;;;11.90;5.47;;;4.90;99.90;;;;;;5048387;28;20086;-44
2021/03/13 01:12:57;;;;;;;11.52;5.95;;;4.90;99.90;;;;;;5048445;28;20037;-44
2021/03/13 01:15:24;;;;;;;7.75;5.57;;;5.00;99.90;;;;;;5047661;28;20013;-44
2021/03/13 01:17:50;;;;;;;15.90;5.55;;;5.00;99.90;;;;;;5047475;28;20052;-44
2021/03/13 01:20:17;;;;;;;13.98;6.68;;;4.90;99.90;;;;;;5047360;28;20052;-45
2021/03/13 01:22:43;;;;;;;11.02;5.93;;;4.90;99.90;;;;;;5048205;28;20067;-45
2021/03/13 01:25:10;;;;;;;8.65;5.97;;;4.90;99.90;;;;;;5047697;28;20379;-44
2021/03/13 01:27:36;;;;;;;10.60;5.47;;;4.90;99.90;;;;;;5048038;28;20029;-45
2021/03/13 01:30:07;;;;;;;13.73;6.68;;;4.90;99.90;;;;;;5047024;28;20539;-45
2021/03/13 01:32:32;;;;;;;9.85;5.70;;;4.90;99.90;;;;;;5047674;28;20414;-47
2021/03/13 01:34:58;;;;;;;9.30;6.07;;;5.00;99.90;;;;;;5047548;28;20059;-44
2021/03/13 01:37:24;;;;;;;14.85;4.63;;;5.00;99.90;;;;;;5047910;28;20021;-44
2021/03/13 01:39:49;;;;;;;10.13;5.57;;;5.00;99.90;;;;;;5047412;28;20029;-46
2021/03/13 01:42:15;;;;;;;10.60;5.47;;;5.00;99.90;;;;;;5047884;28;20032;-44
2021/03/13 01:44:42;;;;;;;10.68;5.63;;;5.00;99.90;;;;;;5054058;28;20029;-45
2021/03/13 01:47:19;;;;;;;14.45;5.97;;;4.90;99.90;;;;;;5047179;28;20486;-44
2021/03/13 01:49:46;;;;;;;12.40;4.53;;;4.90;99.90;;;;;;5047432;28;20410;-46
2021/03/13 01:52:12;;;;;;;9.50;4.85;;;4.90;99.90;;;;;;5046710;28;20017;-46
2021/03/13 01:54:37;;;;;;;7.95;4.47;;;4.90;99.90;;;;;;5046132;28;20036;-44
2021/03/13 01:57:03;;;;;;;10.13;5.00;;;4.80;99.90;;;;;;5047306;28;20497;-44
2021/03/13 01:59:29;;;;;;;10.43;5.35;;;4.80;99.90;;;;;;5047553;28;20025;-45
2021/03/13 02:01:54;;;;;;;12.15;4.35;;;4.80;99.90;;;;;;5047295;28;20037;-45
2021/03/13 02:04:20;;;;;;;11.32;4.93;;;4.80;99.90;;;;;;5047460;28;20079;-47
2021/03/13 02:07:01;;;;;;;14.63;5.97;;;4.80;99.90;;;;;;5047018;28;20359;-44
2021/03/13 02:09:34;;;;;;;6.63;4.18;;;4.80;99.90;;;;;;5047744;28;20214;-45
2021/03/13 02:12:21;;;;;;;11.13;4.10;;;4.80;99.90;;;;;;5047839;28;20492;-45
2021/03/13 02:14:58;;;;;;;11.80;4.53;;;4.80;99.90;;;;;;5047963;28;20033;-45
2021/03/13 02:17:32;;;;;;;12.40;4.72;;;4.70;99.90;;;;;;5045512;28;20123;-45
2021/03/13 02:20:13;;;;;;;7.93;4.20;;;4.70;99.90;;;;;;5047753;28;20044;-45
2021/03/13 02:22:41;;;;;;;9.35;4.55;;;4.70;99.90;;;;;;5047557;28;20082;-44
2021/03/13 02:25:50;;;;;;;7.30;4.13;;;4.70;99.90;;;;;;5046923;28;20517;-44
2021/03/13 02:28:40;;;;;;;8.52;4.05;;;4.70;99.90;;;;;;5046798;28;20174;-45
2021/03/13 02:31:07;;;;;;;7.53;3.92;;;4.70;99.90;;;;;;5048760;28;20029;-45
2021/03/13 02:33:36;;;;;;;11.25;4.43;;;4.80;99.90;;;;;;5050953;28;20025;-45
2021/03/13 02:36:06;;;;;;;13.05;4.63;;;4.70;99.90;;;;;;5050783;28;20021;-44
2021/03/13 02:38:53;;;;;;;10.82;5.38;;;4.80;99.90;;;;;;5051420;28;20033;-44
2021/03/13 02:41:22;;;;;;;9.27;4.53;;;4.80;99.90;;;;;;5051372;28;20040;-44
2021/03/13 02:43:59;;;;;;;5.97;4.65;;;4.80;99.90;;;;;;5052975;28;20530;-44
2021/03/13 02:46:26;;;;;;;6.63;4.20;;;4.80;99.90;;;;;;5066341;28;20028;-45
2021/03/13 02:48:53;;;;;;;6.85;3.80;;;4.80;99.90;;;;;;5070999;28;20074;-45
2021/03/13 02:51:20;;;;;;;9.52;4.40;;;4.90;99.90;;;;;;5065672;28;20115;-44
2021/03/13 02:53:47;;;;;;;7.32;3.83;;;4.90;99.90;;;;;;5050506;28;20165;-43
2021/03/13 02:56:15;;;;;;;5.47;3.72;;;4.90;99.90;;;;;;5050416;28;20055;-44
2021/03/13 02:58:42;;;;;;;5.32;3.67;;;4.90;99.90;;;;;;5049358;28;20127;-45
2021/03/13 03:01:08;;;;;;;7.97;3.83;;;4.90;99.90;;;;;;5050934;28;20029;-45
2021/03/13 03:03:36;;;;;;;8.60;4.22;;;4.90;99.90;;;;;;5049472;28;20441;-44
2021/03/13 03:06:02;;;;;;;8.38;3.63;;;5.00;99.90;;;;;;5050643;28;20087;-45
2021/03/13 03:08:29;;;;;;;7.45;3.47;;;5.10;99.90;;;;;;5049883;28;20066;-44
2021/03/13 03:10:56;;;;;;;7.00;3.50;;;5.10;99.90;;;;;;5051212;28;20029;-45
2021/03/13 03:13:25;;;;;;;6.88;3.83;;;5.20;99.90;;;;;;5050396;28;20115;-44
2021/03/13 03:15:52;;;;;;;5.55;3.30;;;5.20;99.90;;;;;;5050023;28;20031;-45
2021/03/13 03:18:19;;;;;;;10.20;3.58;;;5.20;99.90;;;;;;5050327;28;20032;-45
2021/03/13 03:20:47;;;;;;;8.50;2.88;;;5.30;99.90;;;;;;5050717;28;20032;-45
2021/03/13 03:23:13;;;;;;;8.65;2.67;;;5.30;99.90;;;;;;5049900;28;20028;-44
2021/03/13 03:25:39;;;;;;;8.27;3.15;;;5.40;99.90;;;;;;5049686;28;20035;-46
2021/03/13 03:28:05;;;;;;;6.97;3.13;;;5.40;99.90;;;;;;5050022;28;20124;-44
2021/03/13 03:30:33;;;;;;;9.40;3.20;;;5.40;99.90;;;;;;5050084;28;20406;-44
2021/03/13 03:33:00;;;;;;;9.00;3.42;;;5.50;99.90;;;;;;5049733;28;20048;-45
2021/03/13 03:35:27;;;;;;;4.68;3.10;;;5.50;99.90;;;;;;5049325;28;20021;-46
2021/03/13 03:37:57;;;;;;;4.78;2.90;;;5.50;99.90;;;;;;5049551;28;20079;-45
2021/03/13 03:40:25;;;;;;;5.35;2.75;;;5.50;99.90;;;;;;5050425;28;20529;-44
2021/03/13 03:42:57;;;;;;;6.55;2.90;;;5.60;99.90;;;;;;5048395;28;20036;-45
2021/03/13 03:45:24;;;;;;;5.38;3.00;;;5.50;99.90;;;;;;5051307;28;20424;-46
2021/03/13 03:47:51;;;;;;;9.20;3.58;;;5.60;99.90;;;;;;5064105;28;20043;-45
2021/03/13 03:50:19;;;;;;;6.28;2.92;;;5.60;99.90;;;;;;5061330;28;20024;-48
2021/03/13 03:52:49;;;;;;;5.82;3.25;;;5.60;99.90;;;;;;5061889;28;20029;-45
2021/03/13 03:55:20;;;;;;;5.03;2.60;;;5.60;99.90;;;;;;5068840;28;20020;-45
2021/03/13 03:57:46;;;;;;;6.40;2.90;;;5.60;99.90;;;;;;5069532;28;20021;-45
2021/03/13 04:00:15;;;;;;;5.68;2.65;;;5.70;99.90;;;;;;5070156;28;20180;-47
2021/03/13 04:02:42;;;;;;;7.10;2.95;;;5.80;99.90;;;;;;5058709;28;20421;-44
2021/03/13 04:05:11;;;;;;;5.35;2.70;;;5.80;99.90;;;;;;5058807;28;20056;-46
2021/03/13 04:07:38;;;;;;;8.23;2.58;;;5.80;99.90;;;;;;5060959;28;20078;-44
2021/03/13 04:10:06;;;;;;;12.60;2.25;;;5.90;99.90;;;;;;5069499;28;20114;-44
2021/03/13 04:12:37;;;;;;;4.25;2.85;;;5.80;99.90;;;;;;5069917;28;20020;-44
2021/03/13 04:15:04;;;;;;;2.67;2.13;;;5.80;99.90;;;;;;5068855;28;20044;-46
2021/03/13 04:17:32;;;;;;;5.78;2.70;;;5.70;99.90;;;;;;5057427;28;20417;-45
2021/03/13 04:19:59;;;;;;;4.55;2.42;;;5.80;99.90;;;;;;5049266;28;20028;-45
2021/03/13 04:22:25;;;;;;;4.05;2.58;;;5.80;99.90;;;;;;5047990;28;20029;-45
2021/03/13 04:24:51;;;;;;;4.70;2.28;;;5.80;99.90;;;;;;5048585;28;20029;-43
2021/03/13 04:27:18;;;;;;;8.63;2.63;;;5.70;99.90;;;;;;5049129;28;20025;-47
2021/03/13 04:29:45;;;;;;;6.45;2.05;;;5.70;99.90;;;;;;5048597;28;20496;-44
2021/03/13 04:32:14;;;;;;;2.65;1.85;;;5.70;99.90;;;;;;5049237;28;20029;-45
2021/03/13 04:34:41;;;;;;;4.65;2.15;;;5.70;99.90;;;;;;5048835;28;20046;-44
2021/03/13 04:37:07;;;;;;;7.63;3.70;;;5.80;99.90;;;;;;5048648;28;20036;-48
2021/03/13 04:39:34;;;;;;;4.82;2.10;;;5.70;99.90;;;;;;5049015;28;20426;-45
2021/03/13 04:42:00;;;;;;;5.18;2.72;;;5.70;99.90;;;;;;5049303;28;20252;-45
2021/03/13 04:44:26;;;;;;;5.38;2.00;;;5.70;99.90;;;;;;5048332;28;20040;-45
2021/03/13 04:46:53;;;;;;;6.38;2.22;;;5.80;99.90;;;;;;5052525;28;20228;-44
2021/03/13 04:49:19;;;;;;;4.00;1.90;;;5.90;99.90;;;;;;5052392;28;20108;-45
2021/03/13 04:51:45;;;;;;;9.15;2.58;;;5.90;99.90;;;;;;5048484;28;20538;-46
2021/03/13 04:54:13;;;;;;;4.40;2.30;;;5.90;99.90;;;;;;5047169;28;20113;-47
2021/03/13 04:56:39;;;;;;;3.10;1.98;;;6.00;99.90;;;;;;5048130;28;20021;-46
2021/03/13 04:59:05;;;;;;;7.45;2.17;;;6.00;99.90;;;;;;5048823;28;20449;-46
2021/03/13 05:01:30;;;;;;;4.22;1.88;;;5.90;99.90;;;;;;5048678;28;20338;-46
2021/03/13 05:03:56;;;;;;;7.20;2.25;;;6.00;99.90;;;;;;5047529;28;20029;-44
2021/03/13 05:06:21;;;;;;;4.43;2.08;;;6.00;99.90;;;;;;5048072;28;20032;-45
2021/03/13 05:08:47;;;;;;;4.72;2.30;;;6.00;99.90;;;;;;5048104;28;20473;-45
2021/03/13 05:11:12;;;;;;;9.15;2.38;;;6.00;99.90;;;;;;5048114;28;20029;-45
2021/03/13 05:13:38;;;;;;;3.25;1.83;;;6.00;99.90;;;;;;5047179;28;20039;-45
2021/03/13 05:16:04;;;;;;;7.60;2.42;;;6.00;99.90;;;;;;5047894;28;20023;-45
2021/03/13 05:18:29;;;;;;;3.90;2.53;;;6.10;99.90;;;;;;5048481;28;20482;-44
2021/03/13 05:20:55;;;;;;;8.88;2.10;;;6.10;99.90;;;;;;5048415;28;20032;-46
2021/03/13 05:23:20;;;;;;;5.53;2.95;;;6.10;99.90;;;;;;5048634;28;20033;-44
2021/03/13 05:25:47;;;;;;;7.18;2.00;;;6.10;99.90;;;;;;5047658;28;20033;-45
2021/03/13 05:28:13;;;;;;;9.55;2.75;;;6.10;99.90;;;;;;5048057;28;20032;-45
2021/03/13 05:30:39;;;;;;;4.72;1.92;;;6.10;99.90;;;;;;5046752;28;20548;-45
2021/03/13 05:33:05;;;;;;;7.07;2.13;;;6.20;99.90;;;;;;5048385;28;20394;-46
2021/03/13 05:35:30;;;;;;;3.03;1.73;;;6.10;99.90;;;;;;5047572;28;20021;-44
2021/03/13 05:37:56;;;;;;;5.82;2.65;;;6.10;99.90;;;;;;5048419;28;20163;-44
2021/03/13 05:40:21;;;;;;;7.13;2.60;;;6.10;99.90;;;;;;5048592;28;20051;-45
2021/03/13 05:42:49;;;;;;;6.47;2.80;;;6.10;99.90;;;;;;5048339;28;20025;-44
2021/03/13 05:45:15;;;;;;;4.78;3.42;;;6.10;99.90;;;;;;5047121;28;20108;-45
2021/03/13 05:47:41;;;;;;;6.93;3.03;;;6.10;99.90;;;;;;5050691;28;20116;-46
2021/03/13 05:50:10;;;;;;;7.63;2.75;;;6.10;99.90;;;;;;5051837;28;20025;-44
2021/03/13 05:52:37;;;;;;;4.00;2.80;;;6.00;99.90;;;;;;5047888;28;20017;-45
2021/03/13 05:55:05;;;;;;;4.43;3.38;;;6.00;99.90;;;;;;5047203;28;20017;-45
2021/03/13 05:57:31;;;;;;;6.35;3.90;;;6.00;99.90;;;;;;5047996;28;20029;-46
2021/03/13 05:59:58;;;;;;;8.70;3.58;;;6.00;99.90;;;;;;5053406;28;20327;-44
2021/03/13 06:02:24;;;;;;;10.85;3.33;;;5.90;99.90;;;;;;5058475;28;20063;-44
2021/03/13 06:04:51;;;;;;;5.32;3.47;;;5.90;99.90;;;;;;5051628;28;20032;-44
2021/03/13 06:07:22;;;;;;;6.45;3.78;;;6.00;99.90;;;;;;5056102;28;20032;-44
2021/03/13 06:09:55;;;;;;;8.85;3.78;;;6.00;99.90;;;;;;5058808;28;20022;-44
2021/03/13 06:12:23;;;;;;;5.18;3.42;;;5.90;99.90;;;;;;5047490;28;20052;-43
2021/03/13 06:14:49;;;;;;;6.97;3.67;;;5.90;99.90;;;;;;5055326;28;20028;-45
2021/03/13 06:17:15;;;;;;;4.93;3.55;;;5.90;99.90;;;;;;5053271;28;20100;-44
2021/03/13 06:19:51;;;;;;;7.53;3.28;;;5.90;99.90;;;;;;5053173;28;20123;-45
2021/03/13 06:22:34;;;;;;;6.07;3.58;;;5.90;99.90;;;;;;5056661;28;20017;-44
2021/03/13 06:25:19;;;;;;;6.88;3.55;;;5.90;99.90;;;;;;5055149;28;20060;-45
2021/03/13 06:27:47;;;;;;;4.00;3.22;;;5.90;99.90;;;;;;5056011;28;20043;-45
2021/03/13 06:30:14;;;;;;;4.63;3.40;;;6.00;99.90;;;;;;5055429;28;20103;-45
2021/03/13 06:32:40;;;;;;;4.32;2.85;;;6.00;99.90;;;;;;5055294;28;20025;-46
2021/03/13 06:35:31;;;;;;;7.18;2.95;;;6.00;99.90;;;;;;5055823;28;20453;-45
2021/03/13 06:37:59;;;;;;;4.45;3.20;;;6.00;99.90;;;;;;5057766;28;20057;-45
2021/03/13 06:40:32;;;;;;;3.45;2.60;;;6.00;99.90;;;;;;5056233;28;20033;-45
2021/03/13 06:43:00;;;;;;;3.47;2.50;;;6.00;99.90;;;;;;5056208;28;20021;-45
2021/03/13 06:45:27;;;;;;;3.90;2.78;;;6.00;99.90;;;;;;5055321;28;20497;-45
2021/03/13 06:47:53;;;;;;;3.50;2.67;;;6.00;99.90;;;;;;5055085;28;20037;-46
2021/03/13 06:50:22;;;;;;;2.92;2.17;;;6.00;99.90;;;;;;5056311;28;20020;-46
2021/03/13 06:52:51;;;;;;;6.07;2.72;;;6.00;99.90;;;;;;5057736;28;20168;-45
2021/03/13 06:55:24;;;;;;;6.10;2.58;;;6.00;99.90;;;;;;5055825;28;20052;-45
2021/03/13 06:57:51;;;;;;;4.85;2.70;;;6.00;99.90;;;;;;5055656;28;20036;-45
2021/03/13 07:00:29;;;;;;;4.32;2.67;;;6.00;99.90;;;;;;5057686;28;20108;-46
2021/03/13 07:03:23;;;;;;;3.22;2.40;;;6.00;99.90;;;;;;5055732;28;20074;-45
2021/03/13 07:05:49;;;;;;;1.98;1.77;;;6.00;99.90;;;;;;5043377;28;20083;-45
2021/03/13 07:08:24;;;;;;;3.35;2.05;;;6.00;99.90;;;;;;5054880;28;20436;-45
2021/03/13 07:10:52;;;;;;;3.53;2.10;;;6.00;99.90;;;;;;5046812;28;20068;-46
2021/03/13 07:13:34;;;;;;;5.78;2.30;;;6.00;99.90;;;;;;5047468;28;20029;-45
2021/03/13 07:16:32;;;;;;;3.45;1.92;;;6.00;99.90;;;;;;5050391;28;20040;-45
2021/03/13 07:19:06;;;;;;;3.20;1.77;;;6.00;99.90;;;;;;5058925;28;20033;-45
2021/03/13 07:21:33;;;;;;;5.32;1.95;;;6.00;99.90;;;;;;5058293;28;20211;-46
2021/03/13 07:24:04;;;;;;;2.63;1.70;;;6.00;99.90;;;;;;5059529;28;20020;-46
2021/03/13 07:26:41;;;;;;;2.33;1.75;;;6.00;99.90;;;;;;5058043;28;20020;-46
2021/03/13 07:29:09;;;;;;;2.47;1.98;;;6.00;99.90;;;;;;5059637;28;20044;-45
2021/03/13 07:31:39;;;;;;;1.77;1.58;;;6.00;99.90;;;;;;5056293;28;20078;-45
2021/03/13 07:34:06;;;;;;;2.53;1.80;;;6.00;99.90;;;;;;5059396;28;20063;-45
2021/03/13 07:36:37;;;;;;;5.20;2.20;;;6.00;99.90;;;;;;5064865;28;20262;-46
2021/03/13 07:39:15;;;;;;;3.42;2.35;;;5.90;99.90;;;;;;5070543;28;20025;-45
2021/03/13 07:41:48;;;;;;;3.88;2.50;;;5.90;99.90;;;;;;5069144;28;20029;-45
2021/03/13 07:44:14;;;;;;;2.53;1.90;;;6.00;99.90;;;;;;5070237;28;20025;-47
2021/03/13 07:46:41;;;;;;;2.33;1.90;;;5.90;99.90;;;;;;5069428;28;20024;-46
2021/03/13 07:49:09;;;;;;;4.57;2.00;;;5.90;99.90;;;;;;5069579;28;20440;-46
2021/03/13 07:51:34;;;;;;;2.85;2.00;;;5.90;99.90;;;;;;5059533;28;20413;-46
2021/03/13 07:54:01;;;;;;;2.90;1.88;;;5.90;99.90;;;;;;5069859;28;20020;-46
2021/03/13 07:56:30;;;;;;;2.65;1.73;;;6.00;99.90;;;;;;5059683;28;20029;-48
2021/03/13 07:58:55;;;;;;;2.15;1.83;;;6.00;99.90;;;;;;5060226;28;20025;-46
2021/03/13 08:01:46;;;;;;;2.33;1.90;;;6.00;99.90;;;;;;5057928;28;20464;-46
2021/03/13 08:04:37;;;;;;;1.98;1.50;;;6.10;99.90;;;;;;5059419;28;20025;-47
2021/03/13 08:07:04;;;;;;;3.58;1.80;;;6.10;99.90;;;;;;5057833;28;20248;-46
2021/03/13 08:09:30;;;;;;;2.33;1.77;;;6.10;99.90;;;;;;5058819;28;20056;-45
2021/03/13 08:11:55;;;;;;;2.10;1.20;;;6.20;99.90;;;;;;5057768;28;20049;-45
2021/03/13 08:14:31;;;;;;;1.30;1.20;;;6.20;99.90;;;;;;5056250;28;20025;-45
2021/03/13 08:17:06;;;;;;;2.17;1.40;;;6.30;99.90;;;;;;5057563;28;20028;-45
2021/03/13 08:19:34;;;;;;;1.30;1.20;;;6.30;99.90;;;;;;5059089;28;20021;-45
2021/03/13 08:22:16;;;;;;;3.45;2.67;;;6.30;99.90;;;;;;5058284;28;20052;-47
2021/03/13 08:24:53;;;;;;;2.05;1.55;;;6.40;99.90;;;;;;5057339;28;20259;-47
2021/03/13 08:27:38;;;;;;;7.32;3.75;;;6.40;99.90;;;;;;5058905;28;20032;-46
2021/03/13 08:30:25;;;;;;;1.48;1.20;;;6.40;99.90;;;;;;5068608;28;20059;-46
2021/03/13 08:33:04;;;;;;;2.58;1.00;;;6.40;99.90;;;;;;5055013;28;20021;-46
2021/03/13 08:35:31;;;;;;;1.40;1.10;;;6.50;99.90;;;;;;5049553;28;20538;-46
2021/03/13 08:37:56;;;;;;;1.10;1.00;;;6.60;99.90;;;;;;5062129;28;20085;-47
2021/03/13 08:40:25;;;;;;;2.25;1.15;;;6.60;99.90;;;;;;5068627;28;20024;-46
2021/03/13 08:42:51;;;;;;;1.67;0.93;;;6.60;99.90;;;;;;5057784;28;20776;-46
2021/03/13 08:45:19;;;;;;;1.40;1.30;;;6.70;99.90;;;;;;5057151;28;20535;-45
2021/03/13 08:47:53;;;;;;;1.73;1.10;;;6.60;99.90;;;;;;5050763;28;20033;-45
2021/03/13 08:50:46;;;;;;;1.23;0.75;;;6.70;99.90;;;;;;5059444;28;20025;-46
2021/03/13 08:53:33;;;;;;;2.20;1.00;;;6.70;99.90;;;;;;5061266;28;20118;-48
2021/03/13 08:55:58;;;;;;;1.38;1.13;;;6.80;99.90;;;;;;5058676;28;20017;-45
2021/03/13 08:58:40;;;;;;;0.70;0.70;;;6.90;99.90;;;;;;5056995;28;20570;-46
2021/03/13 09:01:20;;;;;;;2.13;0.70;;;7.00;99.90;;;;;;5057545;28;20032;-45
2021/03/13 09:03:51;;;;;;;1.10;1.00;;;7.10;99.90;;;;;;5057106;28;20028;-47
2021/03/13 09:06:19;;;;;;;2.70;0.80;;;7.10;99.90;;;;;;5055793;28;20032;-45
2021/03/13 09:08:44;;;;;;;1.70;1.13;;;7.20;99.90;;;;;;5057212;28;20056;-46
2021/03/13 09:11:10;;;;;;;0.73;0.73;;;7.30;99.90;;;;;;5056107;28;20451;-46
2021/03/13 09:13:35;;;;;;;0.70;0.60;;;7.40;99.90;;;;;;5057166;28;20103;-48
2021/03/13 09:16:16;;;;;;;0.73;0.70;;;7.50;99.90;;;;;;5058377;28;20020;-46
2021/03/13 09:18:55;;;;;;;0.77;0.75;;;7.60;99.90;;;;;;5058491;28;20133;-48
2021/03/13 09:21:37;;;;;;;2.75;0.80;;;7.60;99.90;;;;;;5057454;28;20570;-46
2021/03/13 09:24:05;;;;;;;2.47;0.80;;;7.70;99.90;;;;;;5055315;28;20048;-46
2021/03/13 09:26:31;;;;;;;2.00;0.88;;;7.80;99.90;;;;;;5056623;28;20634;-46
2021/03/13 09:28:56;;;;;;;0.55;0.50;;;7.90;99.90;;;;;;5058361;28;20048;-46
2021/03/13 09:31:22;;;;;;;3.25;0.50;;;7.90;99.90;;;;;;5062585;28;20055;-49
2021/03/13 09:33:47;;;;;;;0.80;0.80;;;8.00;99.90;;;;;;5068222;28;20402;-46
2021/03/13 09:36:13;;;;;;;0.63;0.60;;;8.00;99.90;;;;;;5059806;28;20032;-46
2021/03/13 09:38:39;;;;;;;1.63;1.00;;;8.10;99.90;;;;;;5057328;28;20067;-46
2021/03/13 09:41:14;;;;;;;0.60;0.60;;;8.10;99.90;;;;;;5055993;28;20086;-45
2021/03/13 09:43:40;;;;;;;0.70;0.63;;;8.20;99.90;;;;;;5057276;28;20024;-46
2021/03/13 09:46:18;;;;;;;3.03;1.08;;;8.30;99.90;;;;;;5054574;28;20040;-44
2021/03/13 09:48:45;;;;;;;1.85;0.47;;;8.40;99.90;;;;;;5056715;28;20025;-44
2021/03/13 09:51:10;;;;;;;2.83;0.75;;;8.50;99.90;;;;;;5056168;28;20020;-45
2021/03/13 09:53:38;;;;;;;1.58;0.80;;;8.60;99.90;;;;;;5057347;28;20025;-44
2021/03/13 09:56:05;;;;;;;2.45;0.80;;;8.70;99.90;;;;;;5055932;28;20012;-47
2021/03/13 09:58:30;;;;;;;1.38;0.65;;;8.80;99.90;;;;;;5058121;28;20035;-45
2021/03/13 10:00:56;;;;;;;1.33;0.43;;;9.00;99.90;;;;;;5057279;28;20386;-45
2021/03/13 10:03:22;;;;;;;1.85;0.68;;;9.20;99.90;;;;;;5056771;28;20496;-48
2021/03/13 10:05:52;;;;;;;1.00;0.70;;;9.20;99.90;;;;;;5055009;28;20082;-46
2021/03/13 10:08:20;;;;;;;0.50;0.50;;;9.20;99.90;;;;;;5057102;28;20511;-45
2021/03/13 10:10:53;;;;;;;0.45;0.45;;;9.30;99.90;;;;;;5055864;28;20031;-45
2021/03/13 10:13:20;;;;;;;1.17;0.55;;;9.30;99.90;;;;;;5056903;28;20436;-48
2021/03/13 10:15:46;;;;;;;0.90;0.70;;;9.30;99.90;;;;;;5057305;28;20023;-47
2021/03/13 10:18:17;;;;;;;1.77;0.73;;;9.30;99.90;;;;;;5056705;28;20368;-48
2021/03/13 10:20:45;;;;;;;0.65;0.65;;;9.30;99.90;;;;;;5057352;28;20032;-45
2021/03/13 10:23:13;;;;;;;0.63;0.63;;;9.30;99.90;;;;;;5059209;28;20048;-44
2021/03/13 10:25:41;;;;;;;1.27;0.90;;;9.30;99.90;;;;;;5065215;28;20028;-45
2021/03/13 10:28:12;;;;;;;0.88;0.85;;;9.20;99.90;;;;;;5067079;28;20067;-45
2021/03/13 10:30:39;;;;;;;;;;;9.20;99.90;;;;;;5067735;28;20036;-45
2021/03/13 10:33:05;;;;;;;4.03;1.40;;;9.20;99.90;;;;;;5058611;28;20007;-45
2021/03/13 10:35:33;;;;;;;4.95;1.08;;;8.80;99.90;;;;;;5047028;28;20033;-46
2021/03/13 10:38:02;;;;;;;4.57;1.13;;;8.50;99.90;;;;;;5047798;28;20090;-45
2021/03/13 10:40:34;;;;;;;1.30;0.70;;;8.00;99.90;;;;;;5047780;28;20025;-45
2021/03/13 10:43:19;;;;;;;1.55;0.70;;;7.70;99.90;;;;;;5047979;28;20537;-46
2021/03/13 10:45:56;;;;;;;1.92;0.63;;;7.50;99.90;;;;;;5046646;28;20025;-46
2021/03/13 10:48:26;;;;;;;0.60;0.50;;;7.40;99.90;;;;;;5047295;28;20116;-46
2021/03/13 10:50:52;;;;;;;1.48;1.27;;;7.40;99.90;;;;;;5046826;28;20112;-47
2021/03/13 10:53:38;;;;;;;5.10;0.68;;;7.40;99.90;;;;;;5047573;28;20286;-46
2021/03/13 10:56:09;;;;;;;3.63;0.80;;;7.50;99.90;;;;;;5055178;28;20150;-46
2021/03/13 10:58:35;;;;;;;;;;;7.60;99.90;;;;;;5051173;28;20136;-45
2021/03/13 11:01:05;;;;;;;0.82;0.50;;;7.60;99.90;;;;;;5050887;28;20275;-45
2021/03/13 11:03:31;;;;;;;2.17;0.88;;;7.70;99.90;;;;;;5055667;28;20027;-46
2021/03/13 11:05:56;;;;;;;5.38;0.98;;;7.70;99.90;;;;;;5057295;28;20052;-46
2021/03/13 11:08:23;;;;;;;2.70;0.85;;;7.70;99.90;;;;;;5052224;28;20067;-47
2021/03/13 11:10:50;;;;;;;1.75;1.00;;;7.80;99.90;;;;;;5061772;28;20024;-46
2021/03/13 11:13:17;;;;;;;1.25;0.85;;;7.80;99.90;;;;;;5070413;28;20021;-47
2021/03/13 11:15:43;;;;;;;4.72;1.08;;;7.80;99.90;;;;;;5069738;28;20029;-46
2021/03/13 11:18:09;;;;;;;4.00;1.30;;;7.90;99.90;;;;;;5070430;28;20501;-47
2021/03/13 11:20:35;;;;;;;3.75;1.20;;;7.90;99.90;;;;;;5069790;28;20127;-46
2021/03/13 11:23:01;;;;;;;4.32;1.10;;;7.90;99.90;;;;;;5070141;28;20490;-44
2021/03/13 11:25:26;;;;;;;4.22;1.67;;;8.00;99.90;;;;;;5068885;28;20115;-48
2021/03/13 11:27:52;;;;;;;3.53;1.00;;;8.00;99.90;;;;;;5069772;28;20123;-46
2021/03/13 11:30:18;;;;;;;2.70;1.13;;;8.10;99.90;;;;;;5060430;28;20071;-45
2021/03/13 11:32:45;;;;;;;2.75;1.35;;;8.10;99.90;;;;;;5058485;28;20052;-47
2021/03/13 11:35:11;;;;;;;2.08;1.00;;;8.00;99.90;;;;;;5058114;28;20468;-48
2021/03/13 11:37:37;;;;;;;6.25;1.70;;;8.10;99.90;;;;;;5057205;28;20056;-46
2021/03/13 11:40:05;;;;;;;4.57;1.35;;;8.10;99.90;;;;;;5052193;28;20108;-46
2021/03/13 11:42:31;;;;;;;5.13;1.35;;;8.20;99.90;;;;;;5049867;28;20039;-46
2021/03/13 11:44:57;;;;;;;6.72;1.52;;;8.20;99.90;;;;;;5048486;28;20021;-47
2021/03/13 11:47:24;;;;;;;3.60;1.40;;;8.30;99.90;;;;;;5049734;28;20078;-44
2021/03/13 11:49:50;;;;;;;5.35;1.60;;;8.30;99.90;;;;;;5049372;28;20112;-48
2021/03/13 11:52:19;;;;;;;7.32;1.70;;;8.30;99.90;;;;;;5049429;28;20120;-47
2021/03/13 11:54:45;;;;;;;9.40;1.52;;;8.30;99.90;;;;;;5052219;28;20039;-45
2021/03/13 11:57:11;;;;;;;3.42;1.77;;;8.20;99.90;;;;;;5064965;28;20013;-47
2021/03/13 11:59:37;;;;;;;5.20;1.70;;;8.30;99.90;;;;;;5069460;28;20024;-44
2021/03/13 12:02:02;;;;;;;7.05;1.55;;;8.30;99.90;;;;;;5068810;28;20032;-46
2021/03/13 12:04:28;;;;;;;10.13;1.98;;;8.30;99.90;;;;;;5049514;28;20033;-47
2021/03/13 12:06:53;;;;;;;6.15;2.00;;;8.40;99.90;;;;;;5048233;28;20025;-45
2021/03/13 12:09:19;;;;;;;4.65;2.03;;;8.40;99.90;;;;;;5049302;28;20059;-45
2021/03/13 12:11:44;;;;;;;5.88;1.55;;;8.40;99.90;;;;;;5049248;28;20017;-44
2021/03/13 12:14:10;;;;;;;10.10;1.80;;;8.50;99.90;;;;;;5049408;28;20029;-47
2021/03/13 12:16:35;;;;;;;7.10;1.90;;;8.50;99.90;;;;;;5049101;28;20029;-48
2021/03/13 12:19:01;;;;;;;4.97;2.15;;;8.50;99.90;;;;;;5049740;28;20048;-47
2021/03/13 12:21:27;;;;;;;5.03;1.70;;;8.60;99.90;;;;;;5047542;28;20166;-45
2021/03/13 12:23:53;;;;;;;7.13;2.05;;;8.60;99.90;;;;;;5048423;28;20037;-45
2021/03/13 12:26:19;;;;;;;7.00;2.20;;;8.70;99.90;;;;;;5047105;28;20029;-44
2021/03/13 12:28:47;;;;;;;4.97;1.50;;;8.80;99.90;;;;;;5048709;28;20029;-44
2021/03/13 12:31:13;;;;;;;5.80;2.60;;;8.90;99.90;;;;;;5052746;28;20064;-45
2021/03/13 12:33:38;;;;;;;11.05;1.75;;;9.10;99.90;;;;;;5055894;28;20071;-46
2021/03/13 12:36:04;;;;;;;16.35;2.67;;;9.40;99.90;;;;;;5066456;28;20028;-45
2021/03/13 12:38:30;;;;;;;9.23;1.83;;;9.90;99.90;;;;;;5068830;28;20385;-45
2021/03/13 12:40:55;;;;;;;2.97;1.42;;;10.30;99.90;;;;;;5068346;28;20034;-45
2021/03/13 12:43:21;;;;;;;4.70;1.27;;;11.00;99.90;;;;;;5068338;28;20032;-47
2021/03/13 12:45:46;;;;;;;5.97;1.90;;;11.50;97.60;;;;;;5068025;28;20039;-46
2021/03/13 12:48:12;;;;;;;2.53;1.58;;;11.90;95.10;;;;;;5068079;28;20062;-45
2021/03/13 12:50:37;;;;;;;7.55;2.00;;;12.50;93.50;;;;;;5066025;28;20420;-45
2021/03/13 12:53:04;;;;;;;7.53;1.55;;;12.50;90.10;;;;;;5068512;28;20029;-46
2021/03/13 12:55:29;;;;;;;5.50;1.75;;;12.50;88.00;;;;;;5067626;28;20048;-45
2021/03/13 12:57:55;;;;;;;5.00;1.65;;;11.90;89.10;;;;;;5058647;28;20048;-45
2021/03/13 13:00:21;;;;;;;4.57;1.58;;;11.60;89.60;;;;;;5067550;28;20570;-45
2021/03/13 13:02:46;;;;;;;5.75;1.48;;;11.40;91.70;;;;;;5068174;28;20150;-48
2021/03/13 13:05:12;;;;;;;2.80;1.25;;;10.80;95.10;;;;;;5060253;28;20017;-45